sensor_id;sensor_type;location;lat;lon;timestamp;P1;durP1;ratioP1;P2;durP2;ratioP2
60964;SDS011;46834;51.100;6.886;2022-07-09T00:00:34;3.17;;;1.60;;
60964;SDS011;46834;51.100;6.886;2022-07-09T00:03:00;2.92;;;1.38;;
60964;SDS011;46834;51.100;6.886;2022-07-09T00:05:26;2.03;;;1.35;;
60964;SDS011;46834;51.100;6.886;2022-07-09T00:07:51;3.85;;;1.35;;
60964;SDS011;46834;51.100;6.886;2022-07-09T00:10:17;1.25;;;1.00;;
60964;SDS011;46834;51.100;6.886;2022-07-09T00:12:43;2.50;;;1.40;;
60964;SDS011;46834;51.100;6.886;2022-07-09T00:15:09;2.50;;;1.45;;
60964;SDS011;46834;51.100;6.886;2022-07-09T00:17:35;2.05;;;1.25;;
60964;SDS011;46834;51.100;6.886;2022-07-09T00:20:01;2.25;;;1.38;;
60964;SDS011;46834;51.100;6.886;2022-07-09T00:22:30;2.20;;;1.38;;
60964;SDS011;46834;51.100;6.886;2022-07-09T00:24:57;3.72;;;1.48;;
60964;SDS011;46834;51.100;6.886;2022-07-09T00:27:24;2.03;;;1.45;;
60964;SDS011;46834;51.100;6.886;2022-07-09T00:29:49;2.03;;;1.30;;
60964;SDS011;46834;51.100;6.886;2022-07-09T00:32:15;2.72;;;1.52;;
60964;SDS011;46834;51.100;6.886;2022-07-09T00:34:41;3.42;;;1.45;;
60964;SDS011;46834;51.100;6.886;2022-07-09T00:37:07;3.38;;;1.55;;
60964;SDS011;46834;51.100;6.886;2022-07-09T00:39:33;2.30;;;1.50;;
60964;SDS011;46834;51.100;6.886;2022-07-09T00:42:05;1.92;;;1.27;;
60964;SDS011;46834;51.100;6.886;2022-07-09T00:44:34;4.57;;;2.00;;
60964;SDS011;46834;51.100;6.886;2022-07-09T00:47:01;2.08;;;1.38;;
60964;SDS011;46834;51.100;6.886;2022-07-09T00:49:29;2.50;;;1.40;;
60964;SDS011;46834;51.100;6.886;2022-07-09T00:51:56;2.03;;;1.33;;
60964;SDS011;46834;51.100;6.886;2022-07-09T00:54:24;2.95;;;1.67;;
60964;SDS011;46834;51.100;6.886;2022-07-09T00:56:50;1.90;;;1.38;;
60964;SDS011;46834;51.100;6.886;2022-07-09T00:59:18;2.28;;;1.60;;
60964;SDS011;46834;51.100;6.886;2022-07-09T01:01:45;3.40;;;1.50;;
60964;SDS011;46834;51.100;6.886;2022-07-09T01:04:12;4.22;;;1.67;;
60964;SDS011;46834;51.100;6.886;2022-07-09T01:06:37;3.97;;;1.50;;
60964;SDS011;46834;51.100;6.886;2022-07-09T01:09:03;3.22;;;1.70;;
60964;SDS011;46834;51.100;6.886;2022-07-09T01:11:29;1.48;;;1.30;;
60964;SDS011;46834;51.100;6.886;2022-07-09T01:13:55;2.17;;;1.58;;
60964;SDS011;46834;51.100;6.886;2022-07-09T01:16:21;3.17;;;1.60;;
60964;SDS011;46834;51.100;6.886;2022-07-09T01:18:55;4.07;;;1.90;;
60964;SDS011;46834;51.100;6.886;2022-07-09T01:21:21;2.53;;;1.40;;
60964;SDS011;46834;51.100;6.886;2022-07-09T01:23:47;7.13;;;1.77;;
60964;SDS011;46834;51.100;6.886;2022-07-09T01:26:13;2.42;;;1.92;;
60964;SDS011;46834;51.100;6.886;2022-07-09T01:28:39;4.30;;;1.83;;
60964;SDS011;46834;51.100;6.886;2022-07-09T01:31:04;2.95;;;1.70;;
60964;SDS011;46834;51.100;6.886;2022-07-09T01:33:30;2.92;;;1.83;;
60964;SDS011;46834;51.100;6.886;2022-07-09T01:35:57;2.53;;;1.65;;
60964;SDS011;46834;51.100;6.886;2022-07-09T01:38:22;5.15;;;2.03;;
60964;SDS011;46834;51.100;6.886;2022-07-09T01:40:48;3.92;;;1.58;;
60964;SDS011;46834;51.100;6.886;2022-07-09T01:43:14;3.25;;;1.92;;
60964;SDS011;46834;51.100;6.886;2022-07-09T01:45:39;2.88;;;1.92;;
60964;SDS011;46834;51.100;6.886;2022-07-09T01:48:05;5.47;;;1.83;;
60964;SDS011;46834;51.100;6.886;2022-07-09T01:50:31;6.72;;;1.77;;
60964;SDS011;46834;51.100;6.886;2022-07-09T01:52:57;3.45;;;2.35;;
60964;SDS011;46834;51.100;6.886;2022-07-09T01:55:22;3.28;;;1.80;;
60964;SDS011;46834;51.100;6.886;2022-07-09T01:57:48;4.75;;;2.08;;
60964;SDS011;46834;51.100;6.886;2022-07-09T02:00:14;5.80;;;2.13;;
60964;SDS011;46834;51.100;6.886;2022-07-09T02:02:40;4.32;;;1.98;;
60964;SDS011;46834;51.100;6.886;2022-07-09T02:05:06;4.95;;;2.30;;
60964;SDS011;46834;51.100;6.886;2022-07-09T02:07:32;3.83;;;2.00;;
60964;SDS011;46834;51.100;6.886;2022-07-09T02:09:58;3.70;;;1.80;;
60964;SDS011;46834;51.100;6.886;2022-07-09T02:12:24;3.38;;;1.80;;
60964;SDS011;46834;51.100;6.886;2022-07-09T02:14:50;3.70;;;2.20;;
60964;SDS011;46834;51.100;6.886;2022-07-09T02:17:16;5.18;;;1.85;;
60964;SDS011;46834;51.100;6.886;2022-07-09T02:19:42;4.13;;;1.90;;
60964;SDS011;46834;51.100;6.886;2022-07-09T02:22:07;4.18;;;2.10;;
60964;SDS011;46834;51.100;6.886;2022-07-09T02:24:33;2.33;;;1.77;;
60964;SDS011;46834;51.100;6.886;2022-07-09T02:26:59;4.20;;;2.25;;
60964;SDS011;46834;51.100;6.886;2022-07-09T02:29:24;7.32;;;2.25;;
60964;SDS011;46834;51.100;6.886;2022-07-09T02:31:50;2.30;;;1.90;;
60964;SDS011;46834;51.100;6.886;2022-07-09T02:34:16;5.32;;;2.53;;
60964;SDS011;46834;51.100;6.886;2022-07-09T02:36:41;9.23;;;2.28;;
60964;SDS011;46834;51.100;6.886;2022-07-09T02:39:07;4.07;;;2.10;;
60964;SDS011;46834;51.100;6.886;2022-07-09T02:41:33;2.00;;;1.63;;
60964;SDS011;46834;51.100;6.886;2022-07-09T02:43:58;5.05;;;1.85;;
60964;SDS011;46834;51.100;6.886;2022-07-09T02:46:24;5.28;;;2.40;;
60964;SDS011;46834;51.100;6.886;2022-07-09T02:48:50;9.40;;;2.03;;
60964;SDS011;46834;51.100;6.886;2022-07-09T02:51:15;3.13;;;2.15;;
60964;SDS011;46834;51.100;6.886;2022-07-09T02:53:41;3.47;;;2.20;;
60964;SDS011;46834;51.100;6.886;2022-07-09T02:56:07;4.20;;;1.98;;
60964;SDS011;46834;51.100;6.886;2022-07-09T02:58:32;10.85;;;2.20;;
60964;SDS011;46834;51.100;6.886;2022-07-09T03:00:58;3.45;;;1.75;;
60964;SDS011;46834;51.100;6.886;2022-07-09T03:03:24;5.40;;;2.42;;
60964;SDS011;46834;51.100;6.886;2022-07-09T03:05:51;5.13;;;2.10;;
60964;SDS011;46834;51.100;6.886;2022-07-09T03:08:17;3.38;;;2.15;;
60964;SDS011;46834;51.100;6.886;2022-07-09T03:10:46;6.35;;;1.90;;
60964;SDS011;46834;51.100;6.886;2022-07-09T03:13:14;4.95;;;2.45;;
60964;SDS011;46834;51.100;6.886;2022-07-09T03:15:40;4.13;;;2.08;;
60964;SDS011;46834;51.100;6.886;2022-07-09T03:18:05;3.58;;;1.92;;
60964;SDS011;46834;51.100;6.886;2022-07-09T03:20:33;4.30;;;2.10;;
60964;SDS011;46834;51.100;6.886;2022-07-09T03:23:05;3.38;;;2.67;;
60964;SDS011;46834;51.100;6.886;2022-07-09T03:25:31;2.90;;;1.90;;
60964;SDS011;46834;51.100;6.886;2022-07-09T03:27:57;3.50;;;2.20;;
60964;SDS011;46834;51.100;6.886;2022-07-09T03:30:23;4.30;;;2.38;;
60964;SDS011;46834;51.100;6.886;2022-07-09T03:32:49;4.10;;;2.08;;
60964;SDS011;46834;51.100;6.886;2022-07-09T03:35:16;3.70;;;2.15;;
60964;SDS011;46834;51.100;6.886;2022-07-09T03:37:42;4.47;;;2.35;;
60964;SDS011;46834;51.100;6.886;2022-07-09T03:40:08;4.05;;;2.38;;
60964;SDS011;46834;51.100;6.886;2022-07-09T03:42:34;3.42;;;2.22;;
60964;SDS011;46834;51.100;6.886;2022-07-09T03:45:00;4.10;;;2.63;;
60964;SDS011;46834;51.100;6.886;2022-07-09T03:47:25;4.38;;;2.45;;
60964;SDS011;46834;51.100;6.886;2022-07-09T03:49:51;7.20;;;2.45;;
60964;SDS011;46834;51.100;6.886;2022-07-09T03:52:17;4.38;;;2.60;;
60964;SDS011;46834;51.100;6.886;2022-07-09T03:54:43;3.53;;;2.03;;
60964;SDS011;46834;51.100;6.886;2022-07-09T03:57:09;4.03;;;2.55;;
60964;SDS011;46834;51.100;6.886;2022-07-09T03:59:36;5.35;;;2.08;;
60964;SDS011;46834;51.100;6.886;2022-07-09T04:02:02;8.02;;;2.67;;
60964;SDS011;46834;51.100;6.886;2022-07-09T04:04:29;5.57;;;2.83;;
60964;SDS011;46834;51.100;6.886;2022-07-09T04:06:55;4.70;;;2.55;;
60964;SDS011;46834;51.100;6.886;2022-07-09T04:09:21;5.07;;;2.72;;
60964;SDS011;46834;51.100;6.886;2022-07-09T04:11:47;6.03;;;2.65;;
60964;SDS011;46834;51.100;6.886;2022-07-09T04:14:13;6.53;;;2.80;;
60964;SDS011;46834;51.100;6.886;2022-07-09T04:16:44;5.63;;;3.20;;
60964;SDS011;46834;51.100;6.886;2022-07-09T04:19:11;4.63;;;2.53;;
60964;SDS011;46834;51.100;6.886;2022-07-09T04:21:37;5.40;;;2.80;;
60964;SDS011;46834;51.100;6.886;2022-07-09T04:24:03;6.43;;;3.15;;
60964;SDS011;46834;51.100;6.886;2022-07-09T04:26:29;7.55;;;2.97;;
60964;SDS011;46834;51.100;6.886;2022-07-09T04:28:55;5.53;;;2.90;;
60964;SDS011;46834;51.100;6.886;2022-07-09T04:31:21;6.53;;;3.08;;
60964;SDS011;46834;51.100;6.886;2022-07-09T04:33:47;7.32;;;3.00;;
60964;SDS011;46834;51.100;6.886;2022-07-09T04:36:13;5.85;;;3.22;;
60964;SDS011;46834;51.100;6.886;2022-07-09T04:38:39;4.60;;;3.05;;
60964;SDS011;46834;51.100;6.886;2022-07-09T04:41:05;4.55;;;3.25;;
60964;SDS011;46834;51.100;6.886;2022-07-09T04:43:31;4.38;;;3.05;;
60964;SDS011;46834;51.100;6.886;2022-07-09T04:45:57;6.95;;;3.33;;
60964;SDS011;46834;51.100;6.886;2022-07-09T04:48:24;6.07;;;2.97;;
60964;SDS011;46834;51.100;6.886;2022-07-09T04:50:50;4.47;;;3.20;;
60964;SDS011;46834;51.100;6.886;2022-07-09T04:53:16;10.82;;;3.78;;
60964;SDS011;46834;51.100;6.886;2022-07-09T04:55:42;7.68;;;3.65;;
60964;SDS011;46834;51.100;6.886;2022-07-09T04:58:08;5.25;;;3.67;;
60964;SDS011;46834;51.100;6.886;2022-07-09T05:00:34;9.45;;;3.75;;
60964;SDS011;46834;51.100;6.886;2022-07-09T05:03:00;4.35;;;3.53;;
60964;SDS011;46834;51.100;6.886;2022-07-09T05:05:26;7.40;;;3.10;;
60964;SDS011;46834;51.100;6.886;2022-07-09T05:07:52;6.95;;;3.88;;
60964;SDS011;46834;51.100;6.886;2022-07-09T05:10:18;6.65;;;3.70;;
60964;SDS011;46834;51.100;6.886;2022-07-09T05:12:44;7.53;;;4.20;;
60964;SDS011;46834;51.100;6.886;2022-07-09T05:15:11;6.35;;;4.22;;
60964;SDS011;46834;51.100;6.886;2022-07-09T05:17:38;5.93;;;4.05;;
60964;SDS011;46834;51.100;6.886;2022-07-09T05:20:06;4.72;;;3.83;;
60964;SDS011;46834;51.100;6.886;2022-07-09T05:22:34;8.50;;;4.32;;
60964;SDS011;46834;51.100;6.886;2022-07-09T05:25:02;4.40;;;3.78;;
60964;SDS011;46834;51.100;6.886;2022-07-09T05:27:29;5.45;;;3.85;;
60964;SDS011;46834;51.100;6.886;2022-07-09T05:29:55;5.28;;;4.22;;
60964;SDS011;46834;51.100;6.886;2022-07-09T05:32:21;6.57;;;4.53;;
60964;SDS011;46834;51.100;6.886;2022-07-09T05:34:47;8.35;;;4.88;;
60964;SDS011;46834;51.100;6.886;2022-07-09T05:37:13;5.15;;;3.97;;
60964;SDS011;46834;51.100;6.886;2022-07-09T05:39:38;7.30;;;4.40;;
60964;SDS011;46834;51.100;6.886;2022-07-09T05:42:04;6.60;;;4.38;;
60964;SDS011;46834;51.100;6.886;2022-07-09T05:44:31;11.82;;;3.97;;
60964;SDS011;46834;51.100;6.886;2022-07-09T05:46:57;6.28;;;4.25;;
60964;SDS011;46834;51.100;6.886;2022-07-09T05:49:23;5.00;;;4.15;;
60964;SDS011;46834;51.100;6.886;2022-07-09T05:51:48;7.95;;;3.72;;
60964;SDS011;46834;51.100;6.886;2022-07-09T05:54:14;6.93;;;4.28;;
60964;SDS011;46834;51.100;6.886;2022-07-09T05:56:40;6.25;;;4.10;;
60964;SDS011;46834;51.100;6.886;2022-07-09T05:59:06;8.20;;;4.60;;
60964;SDS011;46834;51.100;6.886;2022-07-09T06:01:33;6.50;;;4.18;;
60964;SDS011;46834;51.100;6.886;2022-07-09T06:04:05;7.30;;;4.10;;
60964;SDS011;46834;51.100;6.886;2022-07-09T06:06:32;5.32;;;4.03;;
60964;SDS011;46834;51.100;6.886;2022-07-09T06:08:58;6.53;;;4.28;;
60964;SDS011;46834;51.100;6.886;2022-07-09T06:11:24;6.15;;;4.35;;
60964;SDS011;46834;51.100;6.886;2022-07-09T06:13:50;8.93;;;4.65;;
60964;SDS011;46834;51.100;6.886;2022-07-09T06:16:16;9.65;;;4.55;;
60964;SDS011;46834;51.100;6.886;2022-07-09T06:18:41;5.72;;;3.85;;
60964;SDS011;46834;51.100;6.886;2022-07-09T06:21:08;6.95;;;3.92;;
60964;SDS011;46834;51.100;6.886;2022-07-09T06:23:33;5.18;;;3.65;;
60964;SDS011;46834;51.100;6.886;2022-07-09T06:25:59;4.90;;;3.08;;
60964;SDS011;46834;51.100;6.886;2022-07-09T06:28:25;7.65;;;3.80;;
60964;SDS011;46834;51.100;6.886;2022-07-09T06:30:50;8.68;;;3.65;;
60964;SDS011;46834;51.100;6.886;2022-07-09T06:33:16;7.65;;;2.95;;
60964;SDS011;46834;51.100;6.886;2022-07-09T06:35:42;5.45;;;3.08;;
60964;SDS011;46834;51.100;6.886;2022-07-09T06:38:07;4.43;;;2.85;;
60964;SDS011;46834;51.100;6.886;2022-07-09T06:40:33;4.70;;;3.13;;
60964;SDS011;46834;51.100;6.886;2022-07-09T06:42:59;6.43;;;3.72;;
60964;SDS011;46834;51.100;6.886;2022-07-09T06:45:25;3.55;;;2.78;;
60964;SDS011;46834;51.100;6.886;2022-07-09T06:47:51;4.15;;;2.83;;
60964;SDS011;46834;51.100;6.886;2022-07-09T06:50:18;4.38;;;2.80;;
60964;SDS011;46834;51.100;6.886;2022-07-09T06:52:44;4.70;;;3.28;;
60964;SDS011;46834;51.100;6.886;2022-07-09T06:55:10;3.72;;;2.97;;
60964;SDS011;46834;51.100;6.886;2022-07-09T06:57:36;3.53;;;2.83;;
60964;SDS011;46834;51.100;6.886;2022-07-09T07:00:03;5.00;;;2.75;;
60964;SDS011;46834;51.100;6.886;2022-07-09T07:02:30;3.90;;;2.38;;
60964;SDS011;46834;51.100;6.886;2022-07-09T07:04:56;4.20;;;2.50;;
60964;SDS011;46834;51.100;6.886;2022-07-09T07:07:22;4.70;;;2.13;;
60964;SDS011;46834;51.100;6.886;2022-07-09T07:09:48;3.35;;;2.17;;
60964;SDS011;46834;51.100;6.886;2022-07-09T07:12:14;4.47;;;2.70;;
60964;SDS011;46834;51.100;6.886;2022-07-09T07:14:39;4.50;;;2.78;;
60964;SDS011;46834;51.100;6.886;2022-07-09T07:17:05;4.38;;;2.25;;
60964;SDS011;46834;51.100;6.886;2022-07-09T07:19:31;3.42;;;2.10;;
60964;SDS011;46834;51.100;6.886;2022-07-09T07:21:57;4.70;;;1.90;;
60964;SDS011;46834;51.100;6.886;2022-07-09T07:24:22;2.15;;;1.60;;
60964;SDS011;46834;51.100;6.886;2022-07-09T07:26:48;3.08;;;1.55;;
60964;SDS011;46834;51.100;6.886;2022-07-09T07:29:14;2.35;;;1.80;;
60964;SDS011;46834;51.100;6.886;2022-07-09T07:31:40;2.67;;;1.85;;
60964;SDS011;46834;51.100;6.886;2022-07-09T07:34:05;5.05;;;2.03;;
60964;SDS011;46834;51.100;6.886;2022-07-09T07:36:31;3.58;;;2.22;;
60964;SDS011;46834;51.100;6.886;2022-07-09T07:38:57;2.38;;;1.77;;
60964;SDS011;46834;51.100;6.886;2022-07-09T07:41:22;2.67;;;1.98;;
60964;SDS011;46834;51.100;6.886;2022-07-09T07:43:48;2.85;;;1.88;;
60964;SDS011;46834;51.100;6.886;2022-07-09T07:46:14;3.53;;;1.75;;
60964;SDS011;46834;51.100;6.886;2022-07-09T07:48:39;2.67;;;1.80;;
60964;SDS011;46834;51.100;6.886;2022-07-09T07:51:08;3.42;;;2.00;;
60964;SDS011;46834;51.100;6.886;2022-07-09T07:53:35;2.67;;;2.00;;
60964;SDS011;46834;51.100;6.886;2022-07-09T07:56:02;4.32;;;2.20;;
60964;SDS011;46834;51.100;6.886;2022-07-09T07:58:29;3.08;;;2.22;;
60964;SDS011;46834;51.100;6.886;2022-07-09T08:00:56;3.20;;;2.15;;
60964;SDS011;46834;51.100;6.886;2022-07-09T08:03:22;4.30;;;2.08;;
60964;SDS011;46834;51.100;6.886;2022-07-09T08:05:47;2.80;;;1.90;;
60964;SDS011;46834;51.100;6.886;2022-07-09T08:08:13;2.92;;;2.10;;
60964;SDS011;46834;51.100;6.886;2022-07-09T08:10:39;2.92;;;1.80;;
60964;SDS011;46834;51.100;6.886;2022-07-09T08:13:05;4.40;;;2.45;;
60964;SDS011;46834;51.100;6.886;2022-07-09T08:15:30;3.33;;;2.17;;
60964;SDS011;46834;51.100;6.886;2022-07-09T08:17:56;3.80;;;1.70;;
60964;SDS011;46834;51.100;6.886;2022-07-09T08:20:22;3.70;;;1.63;;
60964;SDS011;46834;51.100;6.886;2022-07-09T08:22:47;3.55;;;1.80;;
60964;SDS011;46834;51.100;6.886;2022-07-09T08:25:13;2.42;;;1.50;;
60964;SDS011;46834;51.100;6.886;2022-07-09T08:27:39;2.92;;;1.10;;
60964;SDS011;46834;51.100;6.886;2022-07-09T08:30:05;1.67;;;1.40;;
60964;SDS011;46834;51.100;6.886;2022-07-09T08:32:32;2.10;;;1.23;;
60964;SDS011;46834;51.100;6.886;2022-07-09T08:34:58;2.10;;;1.40;;
60964;SDS011;46834;51.100;6.886;2022-07-09T08:37:24;2.72;;;1.25;;
60964;SDS011;46834;51.100;6.886;2022-07-09T08:39:49;3.40;;;1.20;;
60964;SDS011;46834;51.100;6.886;2022-07-09T08:42:15;1.33;;;1.05;;
60964;SDS011;46834;51.100;6.886;2022-07-09T08:44:43;1.42;;;0.88;;
60964;SDS011;46834;51.100;6.886;2022-07-09T08:47:12;1.75;;;1.02;;
60964;SDS011;46834;51.100;6.886;2022-07-09T08:49:40;1.45;;;1.00;;
60964;SDS011;46834;51.100;6.886;2022-07-09T08:52:07;3.85;;;1.17;;
60964;SDS011;46834;51.100;6.886;2022-07-09T08:54:34;3.60;;;1.20;;
60964;SDS011;46834;51.100;6.886;2022-07-09T08:57:04;3.20;;;1.00;;
60964;SDS011;46834;51.100;6.886;2022-07-09T08:59:31;1.88;;;1.00;;
60964;SDS011;46834;51.100;6.886;2022-07-09T09:02:03;1.75;;;1.02;;
60964;SDS011;46834;51.100;6.886;2022-07-09T09:04:30;4.47;;;1.20;;
60964;SDS011;46834;51.100;6.886;2022-07-09T09:06:59;1.42;;;0.90;;
60964;SDS011;46834;51.100;6.886;2022-07-09T09:09:42;1.80;;;1.30;;
60964;SDS011;46834;51.100;6.886;2022-07-09T09:12:09;1.52;;;0.90;;
60964;SDS011;46834;51.100;6.886;2022-07-09T09:14:36;2.17;;;1.05;;
60964;SDS011;46834;51.100;6.886;2022-07-09T09:17:05;2.90;;;0.90;;
60964;SDS011;46834;51.100;6.886;2022-07-09T09:19:40;1.45;;;0.85;;
60964;SDS011;46834;51.100;6.886;2022-07-09T09:22:06;1.40;;;0.80;;
60964;SDS011;46834;51.100;6.886;2022-07-09T09:24:33;1.08;;;0.70;;
60964;SDS011;46834;51.100;6.886;2022-07-09T09:26:59;1.45;;;0.88;;
60964;SDS011;46834;51.100;6.886;2022-07-09T09:29:28;0.85;;;0.70;;
60964;SDS011;46834;51.100;6.886;2022-07-09T09:31:55;1.27;;;0.82;;
60964;SDS011;46834;51.100;6.886;2022-07-09T09:34:21;5.80;;;0.60;;
60964;SDS011;46834;51.100;6.886;2022-07-09T09:36:49;0.93;;;0.60;;
60964;SDS011;46834;51.100;6.886;2022-07-09T09:41:56;1.08;;;0.57;;
60964;SDS011;46834;51.100;6.886;2022-07-09T09:44:29;1.35;;;0.60;;
60964;SDS011;46834;51.100;6.886;2022-07-09T09:47:02;1.02;;;0.40;;
60964;SDS011;46834;51.100;6.886;2022-07-09T09:49:29;0.50;;;0.50;;
60964;SDS011;46834;51.100;6.886;2022-07-09T09:51:56;0.30;;;0.30;;
60964;SDS011;46834;51.100;6.886;2022-07-09T09:54:33;0.45;;;0.40;;
60964;SDS011;46834;51.100;6.886;2022-07-09T09:57:05;0.60;;;0.30;;
60964;SDS011;46834;51.100;6.886;2022-07-09T09:59:36;5.93;;;1.55;;
60964;SDS011;46834;51.100;6.886;2022-07-09T10:02:06;2.25;;;0.70;;
60964;SDS011;46834;51.100;6.886;2022-07-09T10:04:40;1.25;;;0.40;;
60964;SDS011;46834;51.100;6.886;2022-07-09T10:07:10;2.92;;;0.77;;
60964;SDS011;46834;51.100;6.886;2022-07-09T10:09:39;0.90;;;0.60;;
60964;SDS011;46834;51.100;6.886;2022-07-09T10:12:06;0.57;;;0.50;;
60964;SDS011;46834;51.100;6.886;2022-07-09T10:14:38;0.82;;;0.50;;
60964;SDS011;46834;51.100;6.886;2022-07-09T10:17:13;1.00;;;0.50;;
60964;SDS011;46834;51.100;6.886;2022-07-09T10:19:54;2.03;;;0.40;;
60964;SDS011;46834;51.100;6.886;2022-07-09T10:22:38;2.17;;;0.35;;
60964;SDS011;46834;51.100;6.886;2022-07-09T10:25:21;1.48;;;0.40;;
60964;SDS011;46834;51.100;6.886;2022-07-09T10:27:53;1.13;;;0.93;;
60964;SDS011;46834;51.100;6.886;2022-07-09T10:30:22;2.70;;;0.80;;
60964;SDS011;46834;51.100;6.886;2022-07-09T10:35:38;0.95;;;0.40;;
60964;SDS011;46834;51.100;6.886;2022-07-09T10:38:06;0.93;;;0.60;;
60964;SDS011;46834;51.100;6.886;2022-07-09T10:40:39;1.52;;;0.40;;
60964;SDS011;46834;51.100;6.886;2022-07-09T10:43:11;1.67;;;0.63;;
60964;SDS011;46834;51.100;6.886;2022-07-09T10:45:39;2.85;;;0.43;;
60964;SDS011;46834;51.100;6.886;2022-07-09T10:48:08;0.60;;;0.52;;
60964;SDS011;46834;51.100;6.886;2022-07-09T10:50:37;2.75;;;0.80;;
60964;SDS011;46834;51.100;6.886;2022-07-09T10:53:08;0.80;;;0.60;;
60964;SDS011;46834;51.100;6.886;2022-07-09T10:55:36;0.40;;;0.40;;
60964;SDS011;46834;51.100;6.886;2022-07-09T10:58:15;0.80;;;0.50;;
60964;SDS011;46834;51.100;6.886;2022-07-09T11:00:42;0.40;;;0.40;;
60964;SDS011;46834;51.100;6.886;2022-07-09T11:03:08;1.05;;;0.57;;
60964;SDS011;46834;51.100;6.886;2022-07-09T11:05:34;0.57;;;0.50;;
60964;SDS011;46834;51.100;6.886;2022-07-09T11:08:10;1.15;;;0.60;;
60964;SDS011;46834;51.100;6.886;2022-07-09T11:10:36;0.93;;;0.60;;
60964;SDS011;46834;51.100;6.886;2022-07-09T11:13:04;0.65;;;0.40;;
60964;SDS011;46834;51.100;6.886;2022-07-09T11:15:33;2.22;;;0.50;;
60964;SDS011;46834;51.100;6.886;2022-07-09T11:18:01;1.00;;;0.50;;
60964;SDS011;46834;51.100;6.886;2022-07-09T11:20:36;0.75;;;0.50;;
60964;SDS011;46834;51.100;6.886;2022-07-09T11:23:12;3.58;;;1.00;;
60964;SDS011;46834;51.100;6.886;2022-07-09T11:25:39;1.25;;;0.63;;
60964;SDS011;46834;51.100;6.886;2022-07-09T11:28:06;0.82;;;0.50;;
60964;SDS011;46834;51.100;6.886;2022-07-09T11:30:33;0.50;;;0.50;;
60964;SDS011;46834;51.100;6.886;2022-07-09T11:33:02;2.10;;;0.65;;
60964;SDS011;46834;51.100;6.886;2022-07-09T11:35:29;5.20;;;0.63;;
60964;SDS011;46834;51.100;6.886;2022-07-09T11:37:58;0.82;;;0.60;;
60964;SDS011;46834;51.100;6.886;2022-07-09T11:40:26;3.60;;;0.70;;
60964;SDS011;46834;51.100;6.886;2022-07-09T11:42:52;0.63;;;0.60;;
60964;SDS011;46834;51.100;6.886;2022-07-09T11:45:23;1.30;;;0.70;;
60964;SDS011;46834;51.100;6.886;2022-07-09T11:50:44;1.60;;;0.60;;
60964;SDS011;46834;51.100;6.886;2022-07-09T11:53:23;1.05;;;0.70;;
60964;SDS011;46834;51.100;6.886;2022-07-09T11:56:02;1.25;;;0.70;;
60964;SDS011;46834;51.100;6.886;2022-07-09T11:58:31;1.13;;;0.68;;
60964;SDS011;46834;51.100;6.886;2022-07-09T12:00:57;1.00;;;0.70;;
60964;SDS011;46834;51.100;6.886;2022-07-09T12:03:25;2.72;;;0.65;;
60964;SDS011;46834;51.100;6.886;2022-07-09T12:05:52;1.83;;;0.63;;
60964;SDS011;46834;51.100;6.886;2022-07-09T12:08:26;1.08;;;0.85;;
60964;SDS011;46834;51.100;6.886;2022-07-09T12:10:57;3.08;;;1.15;;
60964;SDS011;46834;51.100;6.886;2022-07-09T12:13:23;1.73;;;0.90;;
60964;SDS011;46834;51.100;6.886;2022-07-09T12:15:49;1.75;;;1.08;;
60964;SDS011;46834;51.100;6.886;2022-07-09T12:18:15;1.33;;;0.80;;
60964;SDS011;46834;51.100;6.886;2022-07-09T12:20:41;1.23;;;0.80;;
60964;SDS011;46834;51.100;6.886;2022-07-09T12:23:07;2.13;;;1.02;;
60964;SDS011;46834;51.100;6.886;2022-07-09T12:25:33;3.13;;;0.90;;
60964;SDS011;46834;51.100;6.886;2022-07-09T12:27:58;1.52;;;1.05;;
60964;SDS011;46834;51.100;6.886;2022-07-09T12:30:24;2.15;;;1.02;;
60964;SDS011;46834;51.100;6.886;2022-07-09T12:32:50;1.20;;;1.10;;
60964;SDS011;46834;51.100;6.886;2022-07-09T12:35:15;1.77;;;1.00;;
60964;SDS011;46834;51.100;6.886;2022-07-09T12:37:42;1.50;;;1.23;;
60964;SDS011;46834;51.100;6.886;2022-07-09T12:40:08;1.33;;;1.00;;
60964;SDS011;46834;51.100;6.886;2022-07-09T12:42:36;1.77;;;0.90;;
60964;SDS011;46834;51.100;6.886;2022-07-09T12:45:03;2.60;;;1.20;;
60964;SDS011;46834;51.100;6.886;2022-07-09T12:47:30;1.13;;;1.00;;
60964;SDS011;46834;51.100;6.886;2022-07-09T12:49:56;2.70;;;0.90;;
60964;SDS011;46834;51.100;6.886;2022-07-09T12:52:22;2.25;;;1.15;;
60964;SDS011;46834;51.100;6.886;2022-07-09T12:54:48;1.67;;;1.05;;
60964;SDS011;46834;51.100;6.886;2022-07-09T12:57:13;1.73;;;1.00;;
60964;SDS011;46834;51.100;6.886;2022-07-09T12:59:39;1.85;;;1.20;;
60964;SDS011;46834;51.100;6.886;2022-07-09T13:02:05;3.97;;;1.40;;
60964;SDS011;46834;51.100;6.886;2022-07-09T13:04:31;2.15;;;1.20;;
60964;SDS011;46834;51.100;6.886;2022-07-09T13:06:57;1.20;;;1.00;;
60964;SDS011;46834;51.100;6.886;2022-07-09T13:09:23;1.23;;;1.13;;
60964;SDS011;46834;51.100;6.886;2022-07-09T13:11:49;1.92;;;1.38;;
60964;SDS011;46834;51.100;6.886;2022-07-09T13:14:15;2.03;;;1.40;;
60964;SDS011;46834;51.100;6.886;2022-07-09T13:16:41;3.83;;;1.45;;
60964;SDS011;46834;51.100;6.886;2022-07-09T13:19:07;2.45;;;1.35;;
60964;SDS011;46834;51.100;6.886;2022-07-09T13:21:32;5.53;;;1.30;;
60964;SDS011;46834;51.100;6.886;2022-07-09T13:23:59;1.75;;;1.35;;
60964;SDS011;46834;51.100;6.886;2022-07-09T13:26:25;4.47;;;1.70;;
60964;SDS011;46834;51.100;6.886;2022-07-09T13:28:51;2.15;;;1.60;;
60964;SDS011;46834;51.100;6.886;2022-07-09T13:31:16;2.67;;;1.40;;
60964;SDS011;46834;51.100;6.886;2022-07-09T13:33:43;7.10;;;2.05;;
60964;SDS011;46834;51.100;6.886;2022-07-09T13:36:09;2.92;;;1.60;;
60964;SDS011;46834;51.100;6.886;2022-07-09T13:38:35;3.80;;;1.55;;
60964;SDS011;46834;51.100;6.886;2022-07-09T13:41:01;2.70;;;1.67;;
60964;SDS011;46834;51.100;6.886;2022-07-09T13:43:27;2.40;;;1.60;;
60964;SDS011;46834;51.100;6.886;2022-07-09T13:45:56;2.72;;;1.70;;
60964;SDS011;46834;51.100;6.886;2022-07-09T13:48:24;9.20;;;2.03;;
60964;SDS011;46834;51.100;6.886;2022-07-09T13:50:52;2.55;;;2.03;;
60964;SDS011;46834;51.100;6.886;2022-07-09T13:53:18;2.25;;;1.80;;
60964;SDS011;46834;51.100;6.886;2022-07-09T13:55:45;4.30;;;1.92;;
60964;SDS011;46834;51.100;6.886;2022-07-09T13:58:11;3.42;;;1.73;;
60964;SDS011;46834;51.100;6.886;2022-07-09T14:00:37;1.80;;;1.40;;
60964;SDS011;46834;51.100;6.886;2022-07-09T14:03:04;4.50;;;1.55;;
60964;SDS011;46834;51.100;6.886;2022-07-09T14:05:30;2.90;;;1.45;;
60964;SDS011;46834;51.100;6.886;2022-07-09T14:07:56;4.07;;;1.48;;
60964;SDS011;46834;51.100;6.886;2022-07-09T14:10:23;3.90;;;1.42;;
60964;SDS011;46834;51.100;6.886;2022-07-09T14:12:50;2.67;;;1.55;;
60964;SDS011;46834;51.100;6.886;2022-07-09T14:15:16;2.10;;;1.25;;
60964;SDS011;46834;51.100;6.886;2022-07-09T14:17:42;3.30;;;1.33;;
60964;SDS011;46834;51.100;6.886;2022-07-09T14:20:08;1.60;;;1.27;;
60964;SDS011;46834;51.100;6.886;2022-07-09T14:22:35;2.38;;;1.50;;
60964;SDS011;46834;51.100;6.886;2022-07-09T14:25:01;2.65;;;1.45;;
60964;SDS011;46834;51.100;6.886;2022-07-09T14:27:27;3.42;;;1.23;;
60964;SDS011;46834;51.100;6.886;2022-07-09T14:29:53;2.60;;;1.38;;
60964;SDS011;46834;51.100;6.886;2022-07-09T14:32:19;3.25;;;1.40;;
60964;SDS011;46834;51.100;6.886;2022-07-09T14:34:44;3.40;;;1.30;;
60964;SDS011;46834;51.100;6.886;2022-07-09T14:37:10;3.05;;;1.40;;
60964;SDS011;46834;51.100;6.886;2022-07-09T14:39:36;1.60;;;1.08;;
60964;SDS011;46834;51.100;6.886;2022-07-09T14:42:02;3.35;;;1.50;;
60964;SDS011;46834;51.100;6.886;2022-07-09T14:44:28;2.13;;;1.30;;
60964;SDS011;46834;51.100;6.886;2022-07-09T14:46:55;1.92;;;1.20;;
60964;SDS011;46834;51.100;6.886;2022-07-09T14:49:24;2.58;;;1.08;;
60964;SDS011;46834;51.100;6.886;2022-07-09T14:51:50;1.58;;;1.10;;
60964;SDS011;46834;51.100;6.886;2022-07-09T14:54:16;2.85;;;1.33;;